createdAt,value
2023-05-06T00:00:27.396Z,10.61
2023-05-06T00:01:27.215Z,10.57
2023-05-06T00:02:27.244Z,10.59
2023-05-06T00:03:27.352Z,10.60
2023-05-06T00:04:27.192Z,10.61
2023-05-06T00:05:27.185Z,10.59
2023-05-06T00:06:27.228Z,10.59
2023-05-06T00:07:27.167Z,10.53
2023-05-06T00:08:27.118Z,10.53
2023-05-06T00:09:27.055Z,10.48
2023-05-06T00:10:27.042Z,10.46
2023-05-06T00:11:27.013Z,10.40
2023-05-06T00:12:27.073Z,10.40
2023-05-06T00:13:27.272Z,10.38
2023-05-06T00:14:26.957Z,10.33
2023-05-06T00:15:26.961Z,10.44
2023-05-06T00:16:26.898Z,10.35
2023-05-06T00:17:26.917Z,10.42
2023-05-06T00:18:26.945Z,10.38
2023-05-06T00:19:26.886Z,10.30
2023-05-06T00:20:26.819Z,10.28
2023-05-06T00:21:26.811Z,10.34
2023-05-06T00:22:26.799Z,10.30
2023-05-06T00:23:26.846Z,10.28
2023-05-06T00:24:26.749Z,10.20
2023-05-06T00:25:26.876Z,10.30
2023-05-06T00:26:26.727Z,10.28
2023-05-06T00:27:26.698Z,10.23
2023-05-06T00:28:26.676Z,10.26
2023-05-06T00:29:26.755Z,10.26
2023-05-06T00:30:26.724Z,10.26
2023-05-06T00:31:26.743Z,10.25
2023-05-06T00:32:26.759Z,10.20
2023-05-06T00:33:26.588Z,10.04
2023-05-06T00:34:26.562Z,10.02
2023-05-06T00:35:26.637Z,10.02
2023-05-06T00:36:26.611Z,9.94
2023-05-06T00:37:26.522Z,9.95
2023-05-06T00:38:26.616Z,9.94
2023-05-06T00:39:26.495Z,10.02
2023-05-06T00:40:26.487Z,10.09
2023-05-06T00:41:26.556Z,9.95
2023-05-06T00:42:26.479Z,10.02
2023-05-06T00:43:26.482Z,9.95
2023-05-06T00:44:26.447Z,9.89
2023-05-06T00:45:26.587Z,9.89
2023-05-06T00:46:26.509Z,9.91
2023-05-06T00:47:26.473Z,9.94
2023-05-06T00:48:26.397Z,9.91
2023-05-06T00:49:26.375Z,9.94
2023-05-06T00:50:26.417Z,9.91
2023-05-06T00:51:26.490Z,9.89
2023-05-06T00:52:26.433Z,9.95
2023-05-06T00:53:26.340Z,9.91
2023-05-06T00:54:26.328Z,9.84
2023-05-06T00:55:26.756Z,9.83
2023-05-06T00:56:26.364Z,9.86
2023-05-06T00:57:26.283Z,9.82
2023-05-06T00:58:26.392Z,9.86
2023-05-06T00:59:26.247Z,9.84
2023-05-06T01:00:26.271Z,9.72
2023-05-06T01:01:26.747Z,9.80
2023-05-06T01:02:33.267Z,9.80
2023-05-06T01:03:27.355Z,9.77
2023-05-06T01:04:26.400Z,9.83
2023-05-06T01:05:26.225Z,9.74
2023-05-06T01:06:26.155Z,9.77
2023-05-06T01:07:26.163Z,9.74
2023-05-06T01:08:26.150Z,9.76
2023-05-06T01:09:26.195Z,9.68
2023-05-06T01:10:26.255Z,9.77
2023-05-06T01:11:26.123Z,9.74
2023-05-06T01:12:26.098Z,9.80
2023-05-06T01:13:26.106Z,9.74
2023-05-06T01:14:26.074Z,9.73
2023-05-06T01:15:26.140Z,9.82
2023-05-06T01:16:26.145Z,9.77
2023-05-06T01:17:26.117Z,9.74
2023-05-06T01:18:26.047Z,9.79
2023-05-06T01:19:26.046Z,9.79
2023-05-06T01:20:26.029Z,9.77
2023-05-06T01:21:26.096Z,9.62
2023-05-06T01:22:26.024Z,9.58
2023-05-06T01:23:26.172Z,9.55
2023-05-06T01:24:25.987Z,9.55
2023-05-06T01:25:25.983Z,9.59
2023-05-06T01:26:25.972Z,9.54
2023-05-06T01:27:25.931Z,9.58
2023-05-06T01:28:25.910Z,9.54
2023-05-06T01:29:26.081Z,9.50
2023-05-06T01:30:25.951Z,9.50
2023-05-06T01:31:25.945Z,9.47
2023-05-06T01:32:25.898Z,9.47
2023-05-06T01:33:25.943Z,9.37
2023-05-06T01:34:25.865Z,9.40
2023-05-06T01:35:26.004Z,9.26
2023-05-06T01:36:25.809Z,9.28
2023-05-06T01:37:25.792Z,9.28
2023-05-06T01:38:25.782Z,9.21
2023-05-06T01:39:25.871Z,9.21
2023-05-06T01:40:25.759Z,9.13
2023-05-06T01:41:25.840Z,9.10
2023-05-06T01:42:25.764Z,9.04
2023-05-06T01:43:25.745Z,9.06
2023-05-06T01:44:25.781Z,9.02
2023-05-06T01:45:25.799Z,9.03
2023-05-06T01:46:25.764Z,9.14
2023-05-06T01:47:25.929Z,9.13
2023-05-06T01:48:25.749Z,9.16
2023-05-06T01:49:25.789Z,9.03
2023-05-06T01:50:25.726Z,9.10
2023-05-06T01:51:25.649Z,9.04
2023-05-06T01:52:25.644Z,9.00
2023-05-06T01:53:25.628Z,8.99
2023-05-06T01:54:25.607Z,9.03
2023-05-06T01:55:25.644Z,8.92
2023-05-06T01:56:25.756Z,8.92
2023-05-06T01:57:25.591Z,8.82
2023-05-06T01:58:25.602Z,8.87
2023-05-06T01:59:25.594Z,8.85
2023-05-06T02:00:25.581Z,8.76
2023-05-06T02:01:25.653Z,8.74
2023-05-06T02:02:25.657Z,8.73
2023-05-06T02:03:25.658Z,8.64
2023-05-06T02:04:25.543Z,8.73
2023-05-06T02:05:25.631Z,8.64
2023-05-06T02:06:25.579Z,8.64
2023-05-06T02:07:25.508Z,8.58
2023-05-06T02:08:25.546Z,8.66
2023-05-06T02:09:25.553Z,8.66
2023-05-06T02:10:25.702Z,8.61
2023-05-06T02:11:25.594Z,8.64
2023-05-06T02:12:25.509Z,8.64
2023-05-06T02:13:25.530Z,8.66
2023-05-06T02:14:25.514Z,8.69
2023-05-06T02:15:25.498Z,8.69
2023-05-06T02:16:25.610Z,8.66
2023-05-06T02:17:25.536Z,8.70
2023-05-06T02:18:25.548Z,8.70
2023-05-06T02:19:25.538Z,8.67
2023-05-06T02:20:25.540Z,8.53
2023-05-06T02:21:25.631Z,8.60
2023-05-06T02:22:25.659Z,8.52
2023-05-06T02:23:25.519Z,8.55
2023-05-06T02:24:25.477Z,8.60
2023-05-06T02:25:25.471Z,8.66
2023-05-06T02:26:25.591Z,8.66
2023-05-06T02:27:25.489Z,8.67
2023-05-06T02:28:25.585Z,8.66
2023-05-06T02:29:25.463Z,8.66
2023-05-06T02:30:25.469Z,8.63
2023-05-06T02:31:25.545Z,8.60
2023-05-06T02:32:25.463Z,8.69
2023-05-06T02:33:25.551Z,8.78
2023-05-06T02:34:25.489Z,8.73
2023-05-06T02:35:25.417Z,8.76
2023-05-06T02:36:25.462Z,8.79
2023-05-06T02:37:25.499Z,8.84
2023-05-06T02:38:25.404Z,8.81
2023-05-06T02:39:25.509Z,8.94
2023-05-06T02:40:25.369Z,8.88
2023-05-06T02:41:25.440Z,8.84
2023-05-06T02:42:25.408Z,8.91
2023-05-06T02:43:25.374Z,8.97
2023-05-06T02:44:25.358Z,8.92
2023-05-06T02:45:25.364Z,9.02
2023-05-06T02:46:25.489Z,9.03
2023-05-06T02:47:25.510Z,9.10
2023-05-06T02:48:25.362Z,9.00
2023-05-06T02:49:25.488Z,9.14
2023-05-06T02:50:25.482Z,9.13
2023-05-06T02:51:25.358Z,9.18
2023-05-06T02:52:25.438Z,9.08
2023-05-06T02:53:25.489Z,9.11
2023-05-06T02:54:25.422Z,9.08
2023-05-06T02:55:25.329Z,9.16
2023-05-06T02:56:25.327Z,9.16
2023-05-06T02:57:25.389Z,9.16
2023-05-06T02:58:25.482Z,9.06
2023-05-06T02:59:25.355Z,9.04
2023-05-06T03:00:25.329Z,9.02
2023-05-06T03:01:25.327Z,9.08
2023-05-06T03:02:25.388Z,9.13
2023-05-06T03:03:25.309Z,9.02
2023-05-06T03:04:26.274Z,9.00
2023-05-06T03:05:25.740Z,9.02
2023-05-06T03:06:25.376Z,9.02
2023-05-06T03:07:25.376Z,9.00
2023-05-06T03:08:25.403Z,9.03
2023-05-06T03:09:25.436Z,9.10
2023-05-06T03:10:25.988Z,8.99
2023-05-06T03:11:25.312Z,9.03
2023-05-06T03:12:26.849Z,9.06
2023-05-06T03:13:25.400Z,9.02
2023-05-06T03:14:25.377Z,9.04
2023-05-06T03:15:25.532Z,8.91
2023-05-06T03:16:25.406Z,8.94
2023-05-06T03:17:25.465Z,8.92
2023-05-06T03:18:25.378Z,8.97
2023-05-06T03:19:25.342Z,8.92
2023-05-06T03:20:25.373Z,8.97
2023-05-06T03:21:25.441Z,8.92
2023-05-06T03:22:25.390Z,8.97
2023-05-06T03:23:25.373Z,8.92
2023-05-06T03:24:25.358Z,8.95
2023-05-06T03:25:25.438Z,8.92
2023-05-06T03:26:25.394Z,8.91
2023-05-06T03:27:25.367Z,8.95
2023-05-06T03:28:25.451Z,8.97
2023-05-06T03:29:25.492Z,8.89
2023-05-06T03:30:25.375Z,8.81
2023-05-06T03:31:25.475Z,8.82
2023-05-06T03:32:25.414Z,8.85
2023-05-06T03:33:25.382Z,8.92
2023-05-06T03:34:25.348Z,8.97
2023-05-06T03:35:25.349Z,8.89
2023-05-06T03:36:25.499Z,8.89
2023-05-06T03:37:25.501Z,8.87
2023-05-06T03:38:25.395Z,8.87
2023-05-06T03:39:25.327Z,8.84
2023-05-06T03:40:25.343Z,8.88
2023-05-06T03:41:25.410Z,8.85
2023-05-06T03:42:25.328Z,8.79
2023-05-06T03:43:25.440Z,8.81
2023-05-06T03:44:25.403Z,8.79
2023-05-06T03:45:25.341Z,8.79
2023-05-06T03:46:25.403Z,8.76
2023-05-06T03:47:25.437Z,8.78
2023-05-06T03:48:25.349Z,8.70
2023-05-06T03:49:25.382Z,8.76
2023-05-06T03:50:25.346Z,8.76
2023-05-06T03:51:25.403Z,8.69
2023-05-06T03:52:25.323Z,8.71
2023-05-06T03:53:25.330Z,8.69
2023-05-06T03:54:25.398Z,8.61
2023-05-06T03:55:25.445Z,8.61
2023-05-06T03:56:25.315Z,8.63
2023-05-06T03:57:25.513Z,8.66
2023-05-06T03:58:25.329Z,8.58
2023-05-06T03:59:25.385Z,8.67
2023-05-06T04:00:25.340Z,8.63
2023-05-06T04:01:25.447Z,8.66
2023-05-06T04:02:25.594Z,8.60
2023-05-06T04:03:25.382Z,8.66
2023-05-06T04:04:25.396Z,8.60
2023-05-06T04:05:25.355Z,8.64
2023-05-06T04:06:25.344Z,8.63
2023-05-06T04:07:25.335Z,8.63
2023-05-06T04:08:25.427Z,8.60
2023-05-06T04:09:25.414Z,8.63
2023-05-06T04:10:25.434Z,8.61
2023-05-06T04:11:25.354Z,8.60
2023-05-06T04:12:25.376Z,8.63
2023-05-06T04:13:25.391Z,8.66
2023-05-06T04:14:25.491Z,8.63
2023-05-06T04:15:25.469Z,8.61
2023-05-06T04:16:25.769Z,8.60
2023-05-06T04:17:25.384Z,8.60
2023-05-06T04:18:25.407Z,8.64
2023-05-06T04:19:25.359Z,8.61
2023-05-06T04:20:25.454Z,8.61
2023-05-06T04:21:25.402Z,8.58
2023-05-06T04:22:25.429Z,8.66
2023-05-06T04:23:25.490Z,8.58
2023-05-06T04:24:25.773Z,8.66
2023-05-06T04:25:25.578Z,8.63
2023-05-06T04:26:25.357Z,8.66
2023-05-06T04:27:25.368Z,8.64
2023-05-06T04:28:25.355Z,8.64
2023-05-06T04:29:25.571Z,8.71
2023-05-06T04:30:25.526Z,8.63
2023-05-06T04:31:25.501Z,8.64
2023-05-06T04:32:25.740Z,8.63
2023-05-06T04:33:25.361Z,8.56
2023-05-06T04:34:25.374Z,8.67
2023-05-06T04:35:25.408Z,8.70
2023-05-06T04:36:25.357Z,8.58
2023-05-06T04:37:25.452Z,8.61
2023-05-06T04:38:25.361Z,8.70
2023-05-06T04:39:25.346Z,8.64
2023-05-06T04:40:25.338Z,8.76
2023-05-06T04:41:25.360Z,8.70
2023-05-06T04:42:25.421Z,8.76
2023-05-06T04:43:25.400Z,8.73
2023-05-06T04:44:25.475Z,8.71
2023-05-06T04:45:25.491Z,8.70
2023-05-06T04:46:25.419Z,8.70
2023-05-06T04:47:25.441Z,8.71
2023-05-06T04:48:25.341Z,8.67
2023-05-06T04:49:25.342Z,8.71
2023-05-06T04:50:25.317Z,8.71
2023-05-06T04:51:25.331Z,8.60
2023-05-06T04:52:25.449Z,8.73
2023-05-06T04:53:25.384Z,8.71
2023-05-06T04:54:25.386Z,8.64
2023-05-06T04:55:25.385Z,8.70
2023-05-06T04:56:25.341Z,8.66
2023-05-06T04:57:25.393Z,8.70
2023-05-06T04:58:25.329Z,8.71
2023-05-06T04:59:25.310Z,8.73
2023-05-06T05:00:25.299Z,8.79
2023-05-06T05:01:25.480Z,8.79
2023-05-06T05:02:25.478Z,8.84
2023-05-06T05:03:25.517Z,8.85
2023-05-06T05:04:25.370Z,8.88
2023-05-06T05:05:25.307Z,8.85
2023-05-06T05:06:25.288Z,8.89
2023-05-06T05:07:25.346Z,8.94
2023-05-06T05:08:25.317Z,8.84
2023-05-06T05:09:25.316Z,8.99
2023-05-06T05:10:25.253Z,8.94
2023-05-06T05:11:25.258Z,9.06
2023-05-06T05:12:25.237Z,9.08
2023-05-06T05:13:25.327Z,9.10
2023-05-06T05:14:25.228Z,9.11
2023-05-06T05:15:25.288Z,9.22
2023-05-06T05:16:25.286Z,9.18
2023-05-06T05:17:25.443Z,9.29
2023-05-06T05:18:25.241Z,9.36
2023-05-06T05:19:25.213Z,9.32
2023-05-06T05:20:25.259Z,9.36
2023-05-06T05:21:25.169Z,9.37
2023-05-06T05:22:25.263Z,9.40
2023-05-06T05:23:25.240Z,9.46
2023-05-06T05:24:25.152Z,9.47
2023-05-06T05:25:25.567Z,9.39
2023-05-06T05:26:25.127Z,9.44
2023-05-06T05:27:25.187Z,9.46
2023-05-06T05:28:25.102Z,9.54
2023-05-06T05:29:25.079Z,9.51
2023-05-06T05:30:25.127Z,9.51
2023-05-06T05:31:25.118Z,9.64
2023-05-06T05:32:25.111Z,9.68
2023-05-06T05:33:25.104Z,9.66
2023-05-06T05:34:25.025Z,9.64
2023-05-06T05:35:25.067Z,9.79
2023-05-06T05:36:25.036Z,9.83
2023-05-06T05:37:25.002Z,9.84
2023-05-06T05:38:24.981Z,9.92
2023-05-06T05:39:24.959Z,9.87
2023-05-06T05:40:24.905Z,10.07
2023-05-06T05:41:24.872Z,10.02
2023-05-06T05:42:24.940Z,10.17
2023-05-06T05:43:24.887Z,10.19
2023-05-06T05:44:24.813Z,10.17
2023-05-06T05:45:24.793Z,10.20
2023-05-06T05:46:24.802Z,10.20
2023-05-06T05:47:24.835Z,10.31
2023-05-06T05:48:24.750Z,10.28
2023-05-06T05:49:24.925Z,10.33
2023-05-06T05:50:24.894Z,10.34
2023-05-06T05:51:24.675Z,10.51
2023-05-06T05:52:24.680Z,10.46
2023-05-06T05:53:24.653Z,10.54
2023-05-06T05:54:24.642Z,10.61
2023-05-06T05:55:24.586Z,10.69
2023-05-06T05:56:24.615Z,10.72
2023-05-06T05:57:24.697Z,10.76
2023-05-06T05:58:24.518Z,10.76
2023-05-06T05:59:24.482Z,10.90
2023-05-06T06:00:24.449Z,10.96
2023-05-06T06:01:24.630Z,11.05
2023-05-06T06:02:24.504Z,11.00
2023-05-06T06:03:24.499Z,11.10
2023-05-06T06:04:24.430Z,11.07
2023-05-06T06:05:24.303Z,11.05
2023-05-06T06:06:24.286Z,11.17
2023-05-06T06:07:24.353Z,11.23
2023-05-06T06:08:24.218Z,11.25
2023-05-06T06:09:24.290Z,11.29
2023-05-06T06:10:24.225Z,11.27
2023-05-06T06:11:24.588Z,11.40
2023-05-06T06:12:24.136Z,11.40
2023-05-06T06:13:25.310Z,11.45
2023-05-06T06:14:24.069Z,11.52
2023-05-06T06:15:24.028Z,11.57
2023-05-06T06:16:24.051Z,11.54
2023-05-06T06:17:24.113Z,11.60
2023-05-06T06:18:23.903Z,11.66
2023-05-06T06:19:23.854Z,11.69
2023-05-06T06:20:23.822Z,11.80
2023-05-06T06:21:23.988Z,11.87
2023-05-06T06:22:23.962Z,11.73
2023-05-06T06:23:23.708Z,11.83
2023-05-06T06:24:23.699Z,11.86
2023-05-06T06:25:23.655Z,11.94
2023-05-06T06:26:23.676Z,11.95
2023-05-06T06:27:23.578Z,11.99
2023-05-06T06:28:23.565Z,11.94
2023-05-06T06:29:23.628Z,12.04
2023-05-06T06:30:23.528Z,11.99
2023-05-06T06:31:23.521Z,12.09
2023-05-06T06:32:23.456Z,12.07
2023-05-06T06:33:24.130Z,12.13
2023-05-06T06:34:23.312Z,12.25
2023-05-06T06:35:23.323Z,12.21
2023-05-06T06:36:23.264Z,12.21
2023-05-06T06:37:23.512Z,12.31
2023-05-06T06:38:23.262Z,12.36
2023-05-06T06:39:23.158Z,12.36
2023-05-06T06:40:23.086Z,12.39
2023-05-06T06:41:23.022Z,12.36
2023-05-06T06:42:22.994Z,12.42
2023-05-06T06:43:23.097Z,12.53
2023-05-06T06:44:22.940Z,12.46
2023-05-06T06:45:22.908Z,12.42
2023-05-06T06:46:22.864Z,12.43
2023-05-06T06:47:22.742Z,12.42
2023-05-06T06:48:22.814Z,12.46
2023-05-06T06:49:22.648Z,12.45
2023-05-06T06:50:22.895Z,12.47
2023-05-06T06:51:22.687Z,12.60
2023-05-06T06:52:22.574Z,12.57
2023-05-06T06:53:22.632Z,12.68
2023-05-06T06:54:22.400Z,12.72
2023-05-06T06:55:22.525Z,12.76
2023-05-06T06:56:22.319Z,12.85
2023-05-06T06:57:22.348Z,12.93
2023-05-06T06:58:22.276Z,12.82
2023-05-06T06:59:22.172Z,12.82
2023-05-06T07:00:22.167Z,12.91
2023-05-06T07:01:22.386Z,12.90
2023-05-06T07:02:22.039Z,13.03
2023-05-06T07:03:22.216Z,13.04
2023-05-06T07:04:21.977Z,13.01
2023-05-06T07:05:21.924Z,13.08
2023-05-06T07:06:21.820Z,13.08
2023-05-06T07:07:22.115Z,13.04
2023-05-06T07:08:21.796Z,13.18
2023-05-06T07:09:21.736Z,13.19
2023-05-06T07:10:21.769Z,13.20
2023-05-06T07:11:21.643Z,13.25
2023-05-06T07:12:21.579Z,13.33
2023-05-06T07:13:21.502Z,13.38
2023-05-06T07:14:21.586Z,13.37
2023-05-06T07:15:21.363Z,13.30
2023-05-06T07:16:21.346Z,13.33
2023-05-06T07:17:21.535Z,13.44
2023-05-06T07:18:21.210Z,13.37
2023-05-06T07:19:21.133Z,13.39
2023-05-06T07:20:21.086Z,13.37
2023-05-06T07:21:21.076Z,13.50
2023-05-06T07:22:20.983Z,13.50
2023-05-06T07:23:20.946Z,13.57
2023-05-06T07:24:21.182Z,13.57
2023-05-06T07:25:20.959Z,13.63
2023-05-06T07:26:20.770Z,13.59
2023-05-06T07:27:20.742Z,13.74
2023-05-06T07:28:20.697Z,13.85
2023-05-06T07:29:21.099Z,13.92
2023-05-06T07:30:23.026Z,13.85
2023-05-06T07:31:20.671Z,14.00
2023-05-06T07:32:20.503Z,14.10
2023-05-06T07:33:20.400Z,14.18
2023-05-06T07:34:20.343Z,14.08
2023-05-06T07:35:20.308Z,14.33
2023-05-06T07:36:21.325Z,14.33
2023-05-06T07:37:20.142Z,14.41
2023-05-06T07:38:20.608Z,14.47
2023-05-06T07:39:20.045Z,14.48
2023-05-06T07:40:19.946Z,14.54
2023-05-06T07:41:19.855Z,14.54
2023-05-06T07:42:19.789Z,14.45
2023-05-06T07:43:19.736Z,14.53
2023-05-06T07:44:19.660Z,14.51
2023-05-06T07:45:19.740Z,14.51
2023-05-06T07:46:19.505Z,14.50
2023-05-06T07:47:19.403Z,14.62
2023-05-06T07:48:20.164Z,14.69
2023-05-06T07:49:19.273Z,14.81
2023-05-06T07:50:19.147Z,14.81
2023-05-06T07:51:19.176Z,14.81
2023-05-06T07:52:19.057Z,14.91
2023-05-06T07:53:18.941Z,14.94
2023-05-06T07:54:18.872Z,15.03
2023-05-06T07:55:18.793Z,15.04
2023-05-06T07:56:18.705Z,15.15
2023-05-06T07:57:18.729Z,15.29
2023-05-06T07:58:18.671Z,15.29
2023-05-06T07:59:18.534Z,15.36
2023-05-06T08:00:18.503Z,15.21
2023-05-06T08:01:18.337Z,15.25
2023-05-06T08:02:18.301Z,15.24
2023-05-06T08:03:18.322Z,15.18
2023-05-06T08:04:18.190Z,14.99
2023-05-06T08:05:18.193Z,14.91
2023-05-06T08:06:17.949Z,14.82
2023-05-06T08:07:17.866Z,14.89
2023-05-06T08:08:17.804Z,14.82
2023-05-06T08:09:23.082Z,14.79
2023-05-06T08:10:18.727Z,14.66
2023-05-06T08:11:19.361Z,14.72
2023-05-06T08:12:17.575Z,14.72
2023-05-06T08:13:17.494Z,14.65
2023-05-06T08:14:17.348Z,14.70
2023-05-06T08:15:17.333Z,14.72
2023-05-06T08:16:17.249Z,14.70
2023-05-06T08:17:17.266Z,14.69
2023-05-06T08:18:22.317Z,14.69
2023-05-06T08:19:18.041Z,14.73
2023-05-06T08:20:16.955Z,14.70
2023-05-06T08:21:16.911Z,14.66
2023-05-06T08:22:16.810Z,14.82
2023-05-06T08:23:16.688Z,14.82
2023-05-06T08:24:16.643Z,14.85
2023-05-06T08:25:16.515Z,14.94
2023-05-06T08:26:16.442Z,14.99
2023-05-06T08:27:16.366Z,14.97
2023-05-06T08:28:16.351Z,14.96
2023-05-06T08:29:16.329Z,15.07
2023-05-06T08:30:16.247Z,15.10
2023-05-06T08:31:16.153Z,15.09
2023-05-06T08:32:16.099Z,15.09
2023-05-06T08:33:15.967Z,15.03
2023-05-06T08:34:15.892Z,15.04
2023-05-06T08:35:15.794Z,15.00
2023-05-06T08:36:15.889Z,14.97
2023-05-06T08:37:15.666Z,15.10
2023-05-06T08:38:16.320Z,15.15
2023-05-06T08:39:15.697Z,15.25
2023-05-06T08:40:15.478Z,15.22
2023-05-06T08:41:15.327Z,15.33
2023-05-06T08:42:15.339Z,15.37
2023-05-06T08:43:15.209Z,15.42
2023-05-06T08:44:15.113Z,15.47
2023-05-06T08:45:15.138Z,15.54
2023-05-06T08:46:15.065Z,15.59
2023-05-06T08:47:15.012Z,15.54
2023-05-06T08:48:14.836Z,15.61
2023-05-06T08:49:14.761Z,15.61
2023-05-06T08:50:14.709Z,15.68
2023-05-06T08:51:14.653Z,15.72
2023-05-06T08:52:14.512Z,15.70
2023-05-06T08:53:14.555Z,15.72
2023-05-06T08:54:14.351Z,15.83
2023-05-06T08:55:14.417Z,15.82
2023-05-06T08:56:14.255Z,15.84
2023-05-06T08:57:14.143Z,15.88
2023-05-06T08:58:14.045Z,15.91
2023-05-06T08:59:13.989Z,15.91
2023-05-06T09:00:13.898Z,15.86
2023-05-06T09:01:13.998Z,15.83
2023-05-06T09:02:13.925Z,15.90
2023-05-06T09:03:13.837Z,15.91
2023-05-06T09:04:13.575Z,15.97
2023-05-06T09:05:13.717Z,16.05
2023-05-06T09:06:13.525Z,16.08
2023-05-06T09:07:13.305Z,16.02
2023-05-06T09:08:13.274Z,16.12
2023-05-06T09:09:13.248Z,16.16
2023-05-06T09:10:13.054Z,16.28
2023-05-06T09:11:13.005Z,16.32
2023-05-06T09:12:12.858Z,16.33
2023-05-06T09:13:12.902Z,16.33
2023-05-06T09:14:12.779Z,16.36
2023-05-06T09:15:13.038Z,16.39
2023-05-06T09:16:12.533Z,16.46
2023-05-06T09:17:12.461Z,16.46
2023-05-06T09:18:12.472Z,16.50
2023-05-06T09:19:12.307Z,16.68
2023-05-06T09:20:12.319Z,16.68
2023-05-06T09:21:12.100Z,16.76
2023-05-06T09:22:12.114Z,16.81
2023-05-06T09:23:11.990Z,16.89
2023-05-06T09:24:12.268Z,16.89
2023-05-06T09:25:12.191Z,17.02
2023-05-06T09:26:11.752Z,17.02
2023-05-06T09:27:13.267Z,17.06
2023-05-06T09:28:11.560Z,17.04
2023-05-06T09:29:11.510Z,17.08
2023-05-06T09:30:11.313Z,17.06
2023-05-06T09:31:11.246Z,17.19
2023-05-06T09:32:11.183Z,17.09
2023-05-06T09:33:11.255Z,17.15
2023-05-06T09:34:11.002Z,17.19
2023-05-06T09:35:11.054Z,17.24
2023-05-06T09:36:10.731Z,17.19
2023-05-06T09:37:10.805Z,17.15
2023-05-06T09:38:10.587Z,17.22
2023-05-06T09:39:10.438Z,17.20
2023-05-06T09:40:10.456Z,17.29
2023-05-06T09:41:10.252Z,17.29
2023-05-06T09:42:10.313Z,17.24
2023-05-06T09:43:10.061Z,17.33
2023-05-06T09:44:09.960Z,17.36
2023-05-06T09:45:10.333Z,17.42
2023-05-06T09:46:09.869Z,17.51
2023-05-06T09:47:09.682Z,17.48
2023-05-06T09:48:09.785Z,17.49
2023-05-06T09:49:09.871Z,17.60
2023-05-06T09:50:09.591Z,17.59
2023-05-06T09:51:09.336Z,17.64
2023-05-06T09:52:09.181Z,17.49
2023-05-06T09:53:09.080Z,17.49
2023-05-06T09:54:09.051Z,17.44
2023-05-06T09:55:09.153Z,17.51
2023-05-06T09:56:09.160Z,17.48
2023-05-06T09:57:08.704Z,17.49
2023-05-06T09:58:08.616Z,17.48
2023-05-06T09:59:08.614Z,17.59
2023-05-06T10:00:08.494Z,17.56
2023-05-06T10:01:08.400Z,17.51
2023-05-06T10:02:08.307Z,17.46
2023-05-06T10:03:08.326Z,17.49
2023-05-06T10:04:08.386Z,17.51
2023-05-06T10:05:08.305Z,17.45
2023-05-06T10:06:08.213Z,17.56
2023-05-06T10:07:07.823Z,17.51
2023-05-06T10:08:07.641Z,17.41
2023-05-06T10:09:07.598Z,17.60
2023-05-06T10:10:07.447Z,17.59
2023-05-06T10:11:07.459Z,17.48
2023-05-06T10:12:07.233Z,17.64
2023-05-06T10:13:07.189Z,17.64
2023-05-06T10:14:07.118Z,17.67
2023-05-06T10:15:07.017Z,17.63
2023-05-06T10:16:07.689Z,17.72
2023-05-06T10:17:07.080Z,17.79
2023-05-06T10:18:06.682Z,17.82
2023-05-06T10:19:06.769Z,17.95
2023-05-06T10:20:06.468Z,17.92
2023-05-06T10:21:06.446Z,18.00
2023-05-06T10:22:06.259Z,18.01
2023-05-06T10:23:06.254Z,18.04
2023-05-06T10:24:06.130Z,17.98
2023-05-06T10:25:05.925Z,18.10
2023-05-06T10:26:05.836Z,18.05
2023-05-06T10:27:05.801Z,18.08
2023-05-06T10:28:06.657Z,18.13
2023-05-06T10:29:05.506Z,18.10
2023-05-06T10:30:05.407Z,18.19
2023-05-06T10:31:05.445Z,18.18
2023-05-06T10:32:05.298Z,18.20
2023-05-06T10:33:05.239Z,18.23
2023-05-06T10:34:05.076Z,18.29
2023-05-06T10:35:04.888Z,18.33
2023-05-06T10:36:04.825Z,18.20
2023-05-06T10:37:04.903Z,18.25
2023-05-06T10:38:04.563Z,18.26
2023-05-06T10:39:04.547Z,18.28
2023-05-06T10:40:04.376Z,18.34
2023-05-06T10:41:04.322Z,18.34
2023-05-06T10:42:04.154Z,18.33
2023-05-06T10:43:04.052Z,18.43
2023-05-06T10:44:04.115Z,18.41
2023-05-06T10:45:03.887Z,18.41
2023-05-06T10:46:03.978Z,18.50
2023-05-06T10:47:03.710Z,18.50
2023-05-06T10:48:03.564Z,18.49
2023-05-06T10:49:03.401Z,18.55
2023-05-06T10:50:03.302Z,18.59
2023-05-06T10:51:03.261Z,18.65
2023-05-06T10:52:03.082Z,18.81
2023-05-06T10:53:03.046Z,18.89
2023-05-06T10:54:02.869Z,18.81
2023-05-06T10:55:02.763Z,18.89
2023-05-06T10:56:02.610Z,18.75
2023-05-06T10:57:02.587Z,18.89
2023-05-06T10:58:02.380Z,18.89
2023-05-06T10:59:02.291Z,18.95
2023-05-06T11:00:02.214Z,18.92
2023-05-06T11:01:02.042Z,18.92
2023-05-06T11:02:01.995Z,18.86
2023-05-06T11:03:01.861Z,18.95
2023-05-06T11:04:01.802Z,18.92
2023-05-06T11:05:01.608Z,18.95
2023-05-06T11:06:01.529Z,19.04
2023-05-06T11:07:01.316Z,19.00
2023-05-06T11:08:01.207Z,19.16
2023-05-06T11:09:01.185Z,19.24
2023-05-06T11:10:01.044Z,19.11
2023-05-06T11:11:00.888Z,19.15
2023-05-06T11:12:00.750Z,19.22
2023-05-06T11:13:00.755Z,19.18
2023-05-06T11:14:00.535Z,19.22
2023-05-06T11:15:00.457Z,19.27
2023-05-06T11:16:00.329Z,19.30
2023-05-06T11:17:00.336Z,19.34
2023-05-06T11:18:00.160Z,19.31
2023-05-06T11:18:59.897Z,19.41
2023-05-06T11:19:59.768Z,19.44
2023-05-06T11:20:59.980Z,19.33
2023-05-06T11:21:59.560Z,19.37
2023-05-06T11:22:59.417Z,19.30
2023-05-06T11:23:59.311Z,19.40
2023-05-06T11:24:59.222Z,19.41
2023-05-06T11:25:59.460Z,19.48
2023-05-06T11:26:58.953Z,19.41
2023-05-06T11:27:58.982Z,19.54
2023-05-06T11:28:58.661Z,19.47
2023-05-06T11:29:58.615Z,19.56
2023-05-06T11:30:58.506Z,19.62
2023-05-06T11:31:58.271Z,19.48
2023-05-06T11:32:58.175Z,19.44
2023-05-06T11:33:58.049Z,19.49
2023-05-06T11:34:58.000Z,19.52
2023-05-06T11:35:57.924Z,19.44
2023-05-06T11:36:57.654Z,19.51
2023-05-06T11:37:57.596Z,19.52
2023-05-06T11:38:57.418Z,19.55
2023-05-06T11:39:57.312Z,19.59
2023-05-06T11:40:57.406Z,19.63
2023-05-06T11:41:57.250Z,19.58
2023-05-06T11:42:56.917Z,19.52
2023-05-06T11:43:56.776Z,19.70
2023-05-06T11:44:56.729Z,19.67
2023-05-06T11:45:56.602Z,19.59
2023-05-06T11:46:56.451Z,19.52
2023-05-06T11:47:56.295Z,19.58
2023-05-06T11:48:56.158Z,19.69
2023-05-06T11:49:56.017Z,19.67
2023-05-06T11:50:55.872Z,19.82
2023-05-06T11:51:55.795Z,19.74
2023-05-06T11:52:55.614Z,19.88
2023-05-06T11:53:55.485Z,19.73
2023-05-06T11:54:55.434Z,19.77
2023-05-06T11:55:55.241Z,19.73
2023-05-06T11:56:55.249Z,19.84
2023-05-06T11:57:56.008Z,19.91
2023-05-06T11:58:54.987Z,20.03
2023-05-06T11:59:54.715Z,20.09
2023-05-06T12:00:54.630Z,20.18
2023-05-06T12:01:54.508Z,20.14
2023-05-06T12:02:54.418Z,20.18
2023-05-06T12:03:54.354Z,20.26
2023-05-06T12:04:54.193Z,20.25
2023-05-06T12:05:54.052Z,20.36
2023-05-06T12:06:53.847Z,20.25
2023-05-06T12:07:53.664Z,20.16
2023-05-06T12:08:53.535Z,20.14
2023-05-06T12:09:53.518Z,20.21
2023-05-06T12:10:53.262Z,20.31
2023-05-06T12:11:53.222Z,20.39
2023-05-06T12:12:53.142Z,20.48
2023-05-06T12:13:52.862Z,20.48
2023-05-06T12:14:52.757Z,20.65
2023-05-06T12:15:52.736Z,20.55
2023-05-06T12:16:54.766Z,20.58
2023-05-06T12:17:52.416Z,20.60
2023-05-06T12:18:52.291Z,20.58
2023-05-06T12:19:52.118Z,20.59
2023-05-06T12:20:51.947Z,20.66
2023-05-06T12:21:51.906Z,20.70
2023-05-06T12:22:52.897Z,20.75
2023-05-06T12:23:51.619Z,20.80
2023-05-06T12:24:51.375Z,20.67
2023-05-06T12:25:51.237Z,20.69
2023-05-06T12:26:51.098Z,20.80
2023-05-06T12:27:51.028Z,20.85
2023-05-06T12:28:50.995Z,20.88
2023-05-06T12:29:50.691Z,20.97
2023-05-06T12:30:50.582Z,21.07
2023-05-06T12:31:50.450Z,21.06
2023-05-06T12:32:50.255Z,21.07
2023-05-06T12:33:50.218Z,21.11
2023-05-06T12:34:49.961Z,21.06
2023-05-06T12:35:49.834Z,21.14
2023-05-06T12:36:49.663Z,20.99
2023-05-06T12:37:49.547Z,20.92
2023-05-06T12:38:49.535Z,20.88
2023-05-06T12:39:49.397Z,20.88
2023-05-06T12:40:49.092Z,20.81
2023-05-06T12:41:48.930Z,20.66
2023-05-06T12:42:48.790Z,20.55
2023-05-06T12:43:48.729Z,20.40
2023-05-06T12:44:48.657Z,20.22
2023-05-06T12:45:48.478Z,20.25
2023-05-06T12:46:48.224Z,20.28
2023-05-06T12:47:48.146Z,20.31
2023-05-06T12:48:47.942Z,20.36
2023-05-06T12:49:47.906Z,20.39
2023-05-06T12:50:47.685Z,20.39
2023-05-06T12:51:47.829Z,20.43
2023-05-06T12:52:47.496Z,20.48
2023-05-06T12:53:47.288Z,20.43
2023-05-06T12:54:47.214Z,20.32
2023-05-06T12:55:47.053Z,20.39
2023-05-06T12:56:46.827Z,20.41
2023-05-06T12:57:46.693Z,20.25
2023-05-06T12:58:46.544Z,20.36
2023-05-06T12:59:46.437Z,20.43
2023-05-06T13:00:46.379Z,20.50
2023-05-06T13:01:46.103Z,20.58